Strona główna
METAR-TAF:

METAR-TAF

Lotnisko :

Port lotniczy Oradea

Oradea, Rumunia

Szerokość geograficzna: 47-03N, Długość geograficzna: 021-56E, wysokość: 135 m

Aktualna obserwacja pogody

Raport powstał 33 minut temu, godzina 19:00 UTC
Wiatr 6 kt od zachód
Temperatura 14°C
Wilgotność 72%
Ciśnienie 1014 hPa
Widzialność 10 km lub więcej

METAR: LROD 301900Z AUTO 26006KT 9999 BKN075/// 14/09 Q1014

czas: 22:33 (19:33 UTC)

Prognoza

Raport powstał 5 godziny i 33 minut temu, godzina 14:00 UTC
Prognoza ważna od 30 godzina 15 UTC do 31 godzina 00 UTC
Wiatr 8 kt od zachodnio-północny zachód
Widzialność 10 km lub więcej
Przerywane chmury na wysokości 4500 ft
Przejściowo
od 30 godzina 15 UTC do 30 godzina 18 UTC
Widzialność: 5000 m
Rozproszone chmury na wysokości 3500 ft, Cumulonimbus.
Zachmurzenie całkowite na wysokości 4000 ft
słaby przelotny opad deszczu

TAF: LROD 301400Z 3015/3100 29008KT 9999 BKN045 TEMPO 3015/3018 5000 -SHRA SCT035CB OVC040

Obserwacja i prognoza pogody dla ponad 4000 lotnisk (raport METAR i TAF).

Dostępne stacje oznaczono żółtymi i czerwonymi punktami na mapie.

Najedź kursorem aby zobaczyć nazwę stacji.

Kliknij aby zobaczyć obserwacje i prognozy pogody.

Aby zmienić mapę: kliknij na zielony przycisk z czarnym krzyżykiem, aby powiększyć; na zielony przycisk z myślnikiem, aby pomniejszyć; na zielone strzałki, aby przejść do map sąsiednich.


METAR-TAF: